Time;durP1;ratioP1;P1;durP2;ratioP2;P2;SDS_P1;SDS_P2;PMS_P1;PMS_P2;Temp;Humidity;BMP_temperature;BMP_pressure;BME280_temperature;BME280_humidity;BME280_pressure;Samples;Min_cycle;Max_cycle;Signal;HPM_P1;HPM_P2
2023/01/07 00:01:43;;;;;;;34.70;22.35;;;9.00;99.90;;;;;;5096380;28;20043;-62
2023/01/07 00:04:14;;;;;;;34.45;22.05;;;9.10;99.90;;;;;;5114940;28;20481;-62
2023/01/07 00:06:41;;;;;;;34.35;21.88;;;9.00;99.90;;;;;;5114525;28;20110;-62
2023/01/07 00:09:11;;;;;;;33.92;23.23;;;9.00;99.90;;;;;;5114795;28;20047;-62
2023/01/07 00:11:38;;;;;;;41.38;23.92;;;9.10;99.90;;;;;;5113365;28;20470;-63
2023/01/07 00:14:06;;;;;;;36.83;23.35;;;9.10;99.90;;;;;;5114388;28;20039;-62
2023/01/07 00:16:33;;;;;;;39.85;24.63;;;9.30;99.90;;;;;;5114592;28;20036;-62
2023/01/07 00:19:00;;;;;;;35.00;23.63;;;9.30;99.90;;;;;;5114405;28;20486;-62
2023/01/07 00:21:27;;;;;;;43.65;26.42;;;9.30;99.90;;;;;;5114312;28;20405;-62
2023/01/07 00:24:04;;;;;;;40.15;24.08;;;9.30;99.90;;;;;;5114255;28;20103;-62
2023/01/07 00:26:33;;;;;;;44.17;25.10;;;9.20;99.90;;;;;;5096163;28;20455;-62
2023/01/07 00:28:59;;;;;;;41.90;25.90;;;9.30;99.90;;;;;;5114417;28;20036;-61
2023/01/07 00:31:29;;;;;;;41.60;25.42;;;9.20;99.90;;;;;;5114214;28;20048;-62
2023/01/07 00:36:29;;;;;;;38.08;24.38;;;9.50;99.90;;;;;;5114200;28;20504;-62
2023/01/07 00:39:00;;;;;;;40.58;25.77;;;9.40;99.90;;;;;;5114112;28;20071;-62
2023/01/07 00:41:26;;;;;;;40.70;26.10;;;9.70;99.90;;;;;;5113970;28;20036;-62
2023/01/07 00:43:52;;;;;;;40.03;24.63;;;9.60;99.90;;;;;;5114117;28;20046;-62
2023/01/07 00:46:18;;;;;;;45.55;25.45;;;9.80;99.90;;;;;;5114013;28;20031;-62
2023/01/07 00:48:44;;;;;;;40.63;25.20;;;9.90;99.90;;;;;;5114101;28;20038;-63
2023/01/07 00:51:11;;;;;;;40.90;24.35;;;9.90;99.90;;;;;;5113653;28;20035;-62
2023/01/07 00:53:37;;;;;;;40.45;25.40;;;9.90;99.90;;;;;;5113673;28;20165;-62
2023/01/07 00:56:03;;;;;;;39.55;25.83;;;9.70;99.90;;;;;;5113901;28;20114;-62
2023/01/07 00:58:30;;;;;;;35.30;23.27;;;9.90;99.90;;;;;;5113697;28;20047;-62
2023/01/07 01:00:57;;;;;;;35.40;22.67;;;10.00;99.90;;;;;;5113584;28;20125;-62
2023/01/07 01:03:23;;;;;;;35.92;23.35;;;10.10;99.90;;;;;;5113651;28;20036;-62
2023/01/07 01:05:50;;;;;;;35.17;22.10;;;10.10;99.90;;;;;;5113488;28;20047;-61
2023/01/07 01:08:17;;;;;;;36.65;22.58;;;9.80;99.90;;;;;;5113305;28;20482;-62
2023/01/07 01:10:43;;;;;;;35.22;21.85;;;10.10;99.90;;;;;;5113371;28;20039;-62
2023/01/07 01:13:13;;;;;;;32.70;20.88;;;10.00;99.90;;;;;;5113326;28;20466;-62
2023/01/07 01:15:43;;;;;;;36.75;22.30;;;10.20;99.90;;;;;;5113044;28;20485;-62
2023/01/07 01:18:09;;;;;;;34.88;21.10;;;9.90;99.90;;;;;;5113300;28;20039;-62
2023/01/07 01:20:34;;;;;;;33.67;21.13;;;10.10;99.90;;;;;;5113152;28;20032;-61
2023/01/07 01:23:00;;;;;;;30.77;20.45;;;9.90;99.90;;;;;;5113012;28;20036;-62
2023/01/07 01:25:26;;;;;;;30.80;20.17;;;10.00;99.90;;;;;;5113283;28;20045;-62
2023/01/07 01:27:51;;;;;;;32.22;20.35;;;10.30;99.90;;;;;;5113168;28;20048;-62
2023/01/07 01:30:17;;;;;;;31.35;20.35;;;10.00;99.90;;;;;;5113112;28;20393;-61
2023/01/07 01:32:43;;;;;;;29.42;19.33;;;10.40;99.90;;;;;;5113086;28;20081;-62
2023/01/07 01:35:08;;;;;;;32.40;21.23;;;10.50;99.90;;;;;;5095503;28;20055;-62
2023/01/07 01:37:34;;;;;;;27.85;18.80;;;10.20;99.90;;;;;;5092746;28;20040;-62
2023/01/07 01:40:02;;;;;;;28.75;19.67;;;10.50;99.90;;;;;;5092739;28;20040;-62
2023/01/07 01:42:29;;;;;;;31.90;19.48;;;10.40;99.90;;;;;;5092634;28;20044;-62
2023/01/07 01:44:57;;;;;;;30.45;18.77;;;10.30;99.90;;;;;;5092710;28;20055;-61
2023/01/07 01:47:42;;;;;;;29.23;20.02;;;10.20;99.90;;;;;;5092359;28;20119;-62
2023/01/07 01:50:11;;;;;;;27.02;18.52;;;10.20;99.90;;;;;;5092584;28;20074;-61
2023/01/07 01:52:49;;;;;;;25.92;19.30;;;10.30;99.90;;;;;;5092384;28;20043;-62
2023/01/07 01:55:21;;;;;;;28.23;20.15;;;10.40;99.90;;;;;;5092238;28;20063;-62
2023/01/07 01:57:50;;;;;;;25.65;17.92;;;10.50;99.90;;;;;;5092623;28;20055;-62
2023/01/07 02:00:16;;;;;;;27.35;19.23;;;10.30;99.90;;;;;;5092162;28;20394;-62
2023/01/07 02:02:53;;;;;;;29.33;19.63;;;10.70;99.90;;;;;;5092475;28;20108;-62
2023/01/07 02:05:19;;;;;;;26.20;19.77;;;10.30;99.90;;;;;;5092283;28;20119;-61
2023/01/07 02:07:44;;;;;;;27.88;19.88;;;10.50;99.90;;;;;;5073908;28;20435;-61
2023/01/07 02:10:15;;;;;;;27.40;19.90;;;10.50;99.90;;;;;;5092167;28;20040;-61
2023/01/07 02:13:03;;;;;;;26.45;20.20;;;10.50;99.90;;;;;;5092090;28;20043;-61
2023/01/07 02:15:43;;;;;;;24.58;18.55;;;10.60;99.90;;;;;;5092246;28;20115;-61
2023/01/07 02:18:31;;;;;;;27.17;20.35;;;10.70;99.90;;;;;;5092287;28;20115;-62
2023/01/07 02:21:16;;;;;;;24.00;18.80;;;10.80;99.90;;;;;;5091929;28;20042;-62
2023/01/07 02:24:18;;;;;;;29.27;19.73;;;10.40;99.90;;;;;;5092113;28;20090;-61
2023/01/07 02:27:03;;;;;;;26.85;20.35;;;10.40;99.90;;;;;;5091911;28;20071;-61
2023/01/07 02:30:02;;;;;;;25.25;19.73;;;10.80;99.90;;;;;;5092296;28;20036;-62
2023/01/07 02:33:05;;;;;;;26.70;20.65;;;10.60;99.90;;;;;;5091936;28;20083;-61
2023/01/07 02:35:47;;;;;;;24.42;20.67;;;10.90;99.90;;;;;;5095742;28;20052;-61
2023/01/07 02:38:37;;;;;;;26.13;20.67;;;10.80;99.90;;;;;;5098615;28;20044;-62
2023/01/07 02:41:31;;;;;;;27.53;20.73;;;10.50;99.90;;;;;;5098497;28;20050;-61
2023/01/07 02:44:12;;;;;;;25.83;20.25;;;10.50;99.90;;;;;;5098459;28;20281;-61
2023/01/07 02:47:03;;;;;;;24.20;19.83;;;10.60;99.90;;;;;;5080602;28;20394;-61
2023/01/07 02:49:29;;;;;;;28.75;22.08;;;10.50;99.90;;;;;;5098431;28;20032;-62
2023/01/07 02:51:55;;;;;;;25.17;20.08;;;10.90;99.90;;;;;;5098587;28;20497;-61
2023/01/07 02:54:26;;;;;;;24.17;20.38;;;10.90;99.90;;;;;;5098264;28;20040;-61
2023/01/07 02:57:27;;;;;;;23.60;21.00;;;10.60;99.90;;;;;;5098422;28;20160;-62
2023/01/07 03:00:17;;;;;;;24.17;20.63;;;10.50;99.90;;;;;;4996514;28;20408;-61
2023/01/07 03:03:13;;;;;;;25.60;19.75;;;10.80;99.90;;;;;;4996293;28;20066;-62
2023/01/07 03:05:57;;;;;;;24.02;20.42;;;10.80;99.90;;;;;;4996543;28;20113;-61
2023/01/07 03:08:34;;;;;;;25.42;19.88;;;10.80;99.90;;;;;;4996368;28;20046;-61
2023/01/07 03:11:05;;;;;;;22.45;20.05;;;10.90;99.90;;;;;;4996367;28;20054;-61
2023/01/07 03:14:08;;;;;;;24.33;20.33;;;10.90;99.90;;;;;;4996389;28;20409;-61
2023/01/07 03:16:40;;;;;;;22.83;20.02;;;10.60;99.90;;;;;;4992444;28;20058;-62
2023/01/07 03:19:13;;;;;;;21.98;19.67;;;10.90;99.90;;;;;;4980109;28;20043;-61
2023/01/07 03:21:39;;;;;;;27.05;21.25;;;10.70;99.90;;;;;;4996329;28;20046;-61
2023/01/07 03:24:07;;;;;;;22.67;19.95;;;10.80;99.90;;;;;;4996376;28;20047;-61
2023/01/07 03:26:39;;;;;;;22.63;19.45;;;10.80;99.90;;;;;;4996099;28;20070;-62
2023/01/07 03:29:07;;;;;;;24.45;20.25;;;10.80;99.90;;;;;;4996361;28;20049;-62
2023/01/07 03:31:35;;;;;;;22.02;19.60;;;10.80;99.90;;;;;;4996306;28;20049;-61
2023/01/07 03:34:04;;;;;;;22.52;20.10;;;10.80;99.90;;;;;;5003557;28;20046;-62
2023/01/07 03:36:43;;;;;;;23.65;21.17;;;10.80;99.90;;;;;;5050381;28;20052;-62
2023/01/07 03:39:11;;;;;;;24.55;20.10;;;10.80;99.90;;;;;;5098059;28;20058;-62
2023/01/07 03:44:24;;;;;;;21.08;18.88;;;10.80;99.90;;;;;;5098053;28;20040;-61
2023/01/07 03:46:51;;;;;;;20.80;18.60;;;11.00;99.90;;;;;;5096061;28;20126;-62
2023/01/07 03:49:16;;;;;;;20.65;18.55;;;11.00;99.90;;;;;;5094790;28;20027;-62
2023/01/07 03:51:42;;;;;;;21.67;19.45;;;10.70;99.90;;;;;;5094641;28;20032;-62
2023/01/07 03:54:08;;;;;;;21.25;19.15;;;10.90;99.90;;;;;;5094611;28;20090;-62
2023/01/07 03:56:33;;;;;;;21.33;19.15;;;10.80;99.90;;;;;;5094599;28;20040;-61
2023/01/07 03:58:59;;;;;;;18.48;16.67;;;10.80;99.90;;;;;;5075947;28;20063;-61
2023/01/07 04:01:26;;;;;;;19.90;17.80;;;11.00;99.90;;;;;;5094591;28;20032;-62
2023/01/07 04:03:51;;;;;;;20.35;18.15;;;10.90;99.90;;;;;;5094531;28;20040;-62
2023/01/07 04:06:17;;;;;;;22.38;17.77;;;10.80;99.90;;;;;;5094269;28;20043;-61
2023/01/07 04:08:43;;;;;;;19.25;17.23;;;10.80;99.90;;;;;;5094318;28;20067;-61
2023/01/07 04:11:08;;;;;;;18.17;16.38;;;10.90;99.90;;;;;;5094492;28;20036;-61
2023/01/07 04:13:34;;;;;;;19.55;17.33;;;11.00;99.90;;;;;;5094215;28;20040;-61
2023/01/07 04:16:00;;;;;;;18.48;16.60;;;10.80;99.90;;;;;;5094346;28;20036;-62
2023/01/07 04:18:25;;;;;;;18.45;15.63;;;11.00;99.90;;;;;;5094247;28;20036;-61
2023/01/07 04:20:51;;;;;;;18.58;16.67;;;10.80;99.90;;;;;;5094060;28;20044;-61
2023/01/07 04:23:16;;;;;;;17.25;15.10;;;10.80;99.90;;;;;;5094280;28;20131;-61
2023/01/07 04:25:46;;;;;;;17.65;15.52;;;10.80;99.90;;;;;;5093947;28;20123;-61
2023/01/07 04:28:11;;;;;;;27.73;15.20;;;10.90;99.90;;;;;;5093874;28;20074;-61
2023/01/07 04:30:37;;;;;;;17.33;15.40;;;11.00;99.90;;;;;;5094046;28;20036;-61
2023/01/07 04:33:04;;;;;;;17.58;15.65;;;10.90;99.90;;;;;;5093828;28;20032;-61
2023/01/07 04:35:31;;;;;;;17.83;15.93;;;10.80;99.90;;;;;;5093625;28;20040;-61
2023/01/07 04:37:57;;;;;;;17.60;15.73;;;11.00;99.90;;;;;;5093794;28;20051;-61
2023/01/07 04:40:22;;;;;;;22.95;16.58;;;10.80;99.90;;;;;;5093738;28;20032;-61
2023/01/07 04:42:48;;;;;;;20.88;16.90;;;10.90;99.90;;;;;;5093565;28;20044;-61
2023/01/07 04:45:14;;;;;;;18.85;16.27;;;10.80;99.90;;;;;;5093800;28;20044;-62
2023/01/07 04:47:40;;;;;;;22.55;16.55;;;11.00;99.90;;;;;;5093526;28;20127;-61
2023/01/07 04:50:06;;;;;;;19.00;16.08;;;10.70;99.90;;;;;;5093604;28;20039;-62
2023/01/07 04:52:31;;;;;;;18.42;16.48;;;10.90;99.90;;;;;;5093472;28;20028;-62
2023/01/07 04:54:57;;;;;;;23.75;16.88;;;10.90;99.90;;;;;;5093442;28;20040;-62
2023/01/07 04:57:22;;;;;;;21.35;16.20;;;10.80;99.90;;;;;;5093001;28;20032;-61
2023/01/07 04:59:48;;;;;;;20.67;16.83;;;10.90;99.90;;;;;;5093556;28;20043;-61
2023/01/07 05:02:14;;;;;;;18.60;15.68;;;10.70;99.90;;;;;;5093631;28;20876;-61
2023/01/07 05:04:39;;;;;;;17.65;15.82;;;10.80;99.90;;;;;;5093457;28;20487;-61
2023/01/07 05:07:05;;;;;;;22.83;16.00;;;10.70;99.90;;;;;;5093194;28;20493;-62
2023/01/07 05:09:31;;;;;;;16.60;14.82;;;10.70;99.90;;;;;;5074383;28;20067;-61
2023/01/07 05:11:56;;;;;;;22.92;15.52;;;10.80;99.90;;;;;;5093088;28;20036;-62
2023/01/07 05:14:22;;;;;;;18.77;15.48;;;10.80;99.90;;;;;;5074594;28;20059;-62
2023/01/07 05:16:47;;;;;;;20.40;15.32;;;10.80;99.90;;;;;;5093267;28;20036;-62
2023/01/07 05:19:13;;;;;;;17.33;14.50;;;10.70;99.90;;;;;;5093358;28;20028;-61
2023/01/07 05:21:39;;;;;;;18.70;14.32;;;10.80;99.90;;;;;;5092929;28;20497;-61
2023/01/07 05:24:04;;;;;;;17.85;14.90;;;10.70;99.90;;;;;;5092837;28;20028;-61
2023/01/07 05:26:30;;;;;;;16.58;14.48;;;10.70;99.90;;;;;;5092781;28;20036;-61
2023/01/07 05:28:56;;;;;;;18.48;14.43;;;10.60;99.90;;;;;;5092948;28;20048;-62
2023/01/07 05:31:21;;;;;;;19.20;14.57;;;10.70;99.90;;;;;;5092903;28;20119;-62
2023/01/07 05:33:47;;;;;;;15.55;13.95;;;10.60;99.90;;;;;;5096125;28;20050;-61
2023/01/07 05:36:13;;;;;;;15.07;13.48;;;10.60;99.90;;;;;;5113094;28;20040;-61
2023/01/07 05:38:39;;;;;;;16.52;13.55;;;10.60;99.90;;;;;;5094969;28;20108;-61
2023/01/07 05:41:04;;;;;;;17.55;14.23;;;10.80;99.90;;;;;;5113146;28;20357;-61
2023/01/07 05:43:30;;;;;;;15.20;12.63;;;10.80;99.90;;;;;;5113104;28;20038;-61
2023/01/07 05:45:57;;;;;;;18.30;13.40;;;10.60;99.90;;;;;;5113001;28;20082;-61
2023/01/07 05:48:23;;;;;;;16.85;12.88;;;10.70;99.90;;;;;;5112871;28;20051;-61
2023/01/07 05:50:49;;;;;;;15.13;12.18;;;10.90;99.90;;;;;;5112856;28;20039;-61
2023/01/07 05:53:15;;;;;;;14.48;12.88;;;10.70;99.90;;;;;;5112814;28;20488;-61
2023/01/07 05:55:40;;;;;;;15.25;12.85;;;10.70;99.90;;;;;;5112669;28;20032;-61
2023/01/07 05:58:07;;;;;;;19.20;12.95;;;10.70;99.90;;;;;;5112686;28;20385;-61
2023/01/07 06:00:33;;;;;;;13.90;12.15;;;10.70;99.90;;;;;;5112746;28;20453;-61
2023/01/07 06:02:59;;;;;;;13.43;11.52;;;10.70;99.90;;;;;;5112761;28;20048;-61
2023/01/07 06:05:25;;;;;;;14.60;11.02;;;10.80;99.90;;;;;;5112594;28;20039;-61
2023/01/07 06:07:50;;;;;;;12.57;11.15;;;10.80;99.90;;;;;;5112508;28;20165;-61
2023/01/07 06:10:16;;;;;;;11.77;10.57;;;10.70;99.90;;;;;;5111546;28;20457;-61
2023/01/07 06:12:42;;;;;;;14.15;10.70;;;10.70;99.90;;;;;;5112368;28;20084;-62
2023/01/07 06:15:08;;;;;;;12.48;10.93;;;10.70;99.90;;;;;;5112564;28;20079;-61
2023/01/07 06:17:34;;;;;;;14.20;10.55;;;10.70;99.90;;;;;;5112490;28;20117;-61
2023/01/07 06:20:00;;;;;;;11.73;10.52;;;10.60;99.90;;;;;;5112313;28;20047;-61
2023/01/07 06:22:25;;;;;;;12.52;9.85;;;10.70;99.90;;;;;;5112222;28;20035;-61
2023/01/07 06:24:51;;;;;;;15.82;10.10;;;10.60;99.90;;;;;;5112277;28;20122;-61
2023/01/07 06:27:17;;;;;;;13.93;10.60;;;10.60;99.90;;;;;;5112612;28;20162;-61
2023/01/07 06:29:42;;;;;;;14.73;10.52;;;10.60;99.90;;;;;;5112370;28;20485;-62
2023/01/07 06:32:08;;;;;;;12.68;9.60;;;10.50;99.90;;;;;;5112266;28;20039;-61
2023/01/07 06:34:34;;;;;;;10.98;9.82;;;10.50;99.90;;;;;;5111979;28;20101;-61
2023/01/07 06:36:59;;;;;;;14.85;10.52;;;10.70;99.90;;;;;;5112178;28;20130;-61
2023/01/07 06:39:25;;;;;;;16.15;10.65;;;10.60;99.90;;;;;;5093763;28;20048;-61
2023/01/07 06:41:51;;;;;;;12.93;10.18;;;10.50;99.90;;;;;;5110212;28;20040;-61
2023/01/07 06:44:16;;;;;;;11.30;9.93;;;10.50;99.90;;;;;;5111318;28;20075;-62
2023/01/07 06:46:42;;;;;;;14.95;9.52;;;10.60;99.90;;;;;;5112080;28;20046;-62
2023/01/07 06:49:08;;;;;;;16.85;9.55;;;10.60;99.90;;;;;;5112012;28;20489;-61
2023/01/07 06:51:33;;;;;;;11.93;9.88;;;10.60;99.90;;;;;;5111936;28;20040;-62
2023/01/07 06:53:59;;;;;;;16.33;9.82;;;10.50;99.90;;;;;;5093996;28;20059;-61
2023/01/07 06:56:24;;;;;;;11.23;9.45;;;10.40;99.90;;;;;;5111842;28;20036;-62
2023/01/07 06:58:50;;;;;;;16.08;9.43;;;10.50;99.90;;;;;;5112057;28;20042;-61
2023/01/07 07:01:16;;;;;;;12.65;9.23;;;10.60;99.90;;;;;;5111634;28;20042;-61
2023/01/07 07:03:41;;;;;;;10.65;9.05;;;10.40;99.90;;;;;;5091484;28;20040;-61
2023/01/07 07:06:07;;;;;;;10.65;8.45;;;10.50;99.90;;;;;;5110105;28;20043;-61
2023/01/07 07:08:32;;;;;;;13.63;10.10;;;10.40;99.90;;;;;;5093417;28;20086;-61
2023/01/07 07:10:58;;;;;;;12.48;9.00;;;10.40;99.90;;;;;;5111766;28;20028;-61
2023/01/07 07:13:24;;;;;;;11.18;8.43;;;10.40;99.90;;;;;;5111828;28;20043;-61
2023/01/07 07:15:49;;;;;;;10.68;8.75;;;10.50;99.90;;;;;;5111860;28;20397;-61
2023/01/07 07:18:18;;;;;;;13.77;9.13;;;10.50;99.90;;;;;;5111900;28;20101;-61
2023/01/07 07:20:47;;;;;;;10.77;8.27;;;10.40;99.90;;;;;;5112239;28;20035;-62
2023/01/07 07:23:13;;;;;;;10.65;8.25;;;10.50;99.90;;;;;;5115722;28;20035;-61
2023/01/07 07:25:38;;;;;;;10.82;8.20;;;10.50;99.90;;;;;;5115679;28;20127;-61
2023/01/07 07:28:04;;;;;;;12.07;9.32;;;10.50;99.90;;;;;;5115518;28;20119;-61
2023/01/07 07:30:30;;;;;;;10.27;8.43;;;10.50;99.90;;;;;;5115568;28;20358;-61
2023/01/07 07:33:00;;;;;;;9.57;8.48;;;10.50;99.90;;;;;;5114961;28;20032;-61
2023/01/07 07:35:25;;;;;;;13.90;8.23;;;10.50;99.90;;;;;;5115202;28;20051;-61
2023/01/07 07:37:51;;;;;;;9.65;8.60;;;10.60;99.90;;;;;;5115098;28;20039;-62
2023/01/07 07:40:17;;;;;;;11.63;7.82;;;10.50;99.90;;;;;;5115577;28;20049;-61
2023/01/07 07:42:42;;;;;;;11.13;8.35;;;10.50;99.90;;;;;;5115119;28;20035;-62
2023/01/07 07:45:08;;;;;;;11.63;8.50;;;10.50;99.90;;;;;;5115178;28;20043;-61
2023/01/07 07:47:34;;;;;;;11.95;7.97;;;10.50;99.90;;;;;;5114944;28;20477;-61
2023/01/07 07:50:00;;;;;;;10.68;8.80;;;10.40;99.90;;;;;;5114975;28;20058;-61
2023/01/07 07:52:25;;;;;;;13.00;8.20;;;10.50;99.90;;;;;;5115010;28;20474;-61
2023/01/07 07:54:51;;;;;;;10.98;8.35;;;10.40;99.90;;;;;;5114954;28;20460;-62
2023/01/07 07:57:17;;;;;;;10.55;7.68;;;10.50;99.90;;;;;;5115094;28;20039;-62
2023/01/07 07:59:42;;;;;;;10.48;7.88;;;10.40;99.90;;;;;;5115056;28;20063;-62
2023/01/07 08:02:12;;;;;;;11.73;7.63;;;10.40;99.90;;;;;;5096615;28;20043;-61
2023/01/07 08:04:38;;;;;;;9.40;6.85;;;10.30;99.90;;;;;;5114688;28;20052;-61
2023/01/07 08:07:03;;;;;;;10.68;7.30;;;10.30;99.90;;;;;;5114910;28;20477;-61
2023/01/07 08:09:29;;;;;;;8.98;6.65;;;10.40;99.90;;;;;;5115146;28;20160;-62
2023/01/07 08:11:55;;;;;;;10.05;7.57;;;10.40;99.90;;;;;;5114895;28;20039;-61
2023/01/07 08:14:20;;;;;;;9.45;6.47;;;10.40;99.90;;;;;;5114569;28;20431;-62
2023/01/07 08:16:46;;;;;;;8.88;6.65;;;10.40;99.90;;;;;;5114598;28;20423;-62
2023/01/07 08:19:12;;;;;;;9.48;6.53;;;10.30;99.90;;;;;;5114455;28;20043;-61
2023/01/07 08:21:38;;;;;;;7.50;6.43;;;10.30;99.90;;;;;;5114401;28;20036;-61
2023/01/07 08:24:04;;;;;;;9.90;6.03;;;10.30;99.90;;;;;;5114589;28;20042;-61
2023/01/07 08:26:30;;;;;;;15.82;6.97;;;10.30;99.90;;;;;;5114557;28;20427;-62
2023/01/07 08:28:55;;;;;;;9.40;6.13;;;10.30;99.90;;;;;;5114251;28;20092;-62
2023/01/07 08:31:21;;;;;;;7.43;5.53;;;10.30;99.90;;;;;;5114376;28;20027;-61
2023/01/07 08:33:47;;;;;;;7.93;5.60;;;10.30;99.90;;;;;;5094203;28;20482;-61
2023/01/07 08:36:12;;;;;;;9.02;6.03;;;10.20;99.90;;;;;;5114134;28;20047;-61
2023/01/07 08:38:38;;;;;;;9.55;5.55;;;10.30;99.90;;;;;;5114294;28;20108;-62
2023/01/07 08:41:04;;;;;;;13.63;6.25;;;10.20;99.90;;;;;;5114254;28;20438;-62
2023/01/07 08:43:30;;;;;;;9.70;5.10;;;10.20;99.90;;;;;;5095256;28;20134;-61
2023/01/07 08:45:55;;;;;;;9.95;5.50;;;10.30;99.90;;;;;;5114058;28;20409;-62
2023/01/07 08:48:21;;;;;;;7.88;5.10;;;10.30;99.90;;;;;;5114057;28;20474;-61
2023/01/07 08:50:52;;;;;;;5.93;4.65;;;10.30;99.90;;;;;;5114064;28;20472;-62
2023/01/07 08:53:22;;;;;;;6.10;5.05;;;10.20;99.90;;;;;;5113981;28;20050;-62
2023/01/07 08:55:48;;;;;;;9.68;5.25;;;10.20;99.90;;;;;;5113762;28;20047;-61
2023/01/07 08:58:13;;;;;;;7.43;4.95;;;10.20;99.90;;;;;;5113687;28;20560;-61
2023/01/07 09:00:40;;;;;;;8.55;4.90;;;10.20;99.90;;;;;;5113800;28;20035;-60
2023/01/07 09:03:05;;;;;;;9.45;4.78;;;10.20;99.90;;;;;;5113696;28;20043;-61
2023/01/07 09:05:31;;;;;;;7.97;4.90;;;10.20;99.90;;;;;;5113550;28;20039;-60
2023/01/07 09:07:56;;;;;;;6.47;4.80;;;10.30;99.90;;;;;;5113858;28;20406;-61
2023/01/07 09:10:23;;;;;;;7.18;5.00;;;10.10;99.90;;;;;;5114082;28;20830;-60
2023/01/07 09:12:49;;;;;;;7.05;4.40;;;10.20;99.90;;;;;;5113710;28;20031;-61
2023/01/07 09:15:15;;;;;;;5.85;4.95;;;10.30;99.90;;;;;;5113439;28;20031;-61
2023/01/07 09:17:40;;;;;;;7.22;4.18;;;10.20;99.90;;;;;;5113315;28;20451;-61
2023/01/07 09:20:07;;;;;;;10.25;4.40;;;10.20;99.90;;;;;;5113536;28;20038;-60
2023/01/07 09:22:34;;;;;;;6.68;4.35;;;10.30;99.90;;;;;;5113227;28;20478;-60
2023/01/07 09:25:00;;;;;;;7.15;4.03;;;10.30;99.90;;;;;;5113377;28;20032;-61
2023/01/07 09:27:25;;;;;;;7.57;4.70;;;10.20;99.90;;;;;;5112986;28;20389;-61
2023/01/07 09:29:53;;;;;;;5.80;3.90;;;10.30;99.90;;;;;;5113220;28;20032;-61
2023/01/07 09:32:19;;;;;;;4.55;4.10;;;10.30;99.90;;;;;;5113088;28;20440;-62
2023/01/07 09:34:45;;;;;;;6.47;4.03;;;10.30;99.90;;;;;;5094965;28;20069;-60
2023/01/07 09:37:10;;;;;;;9.63;4.13;;;10.30;99.90;;;;;;5113171;28;20036;-61
2023/01/07 09:39:36;;;;;;;5.85;3.90;;;10.30;99.90;;;;;;5113068;28;20047;-61
2023/01/07 09:42:22;;;;;;;7.18;4.28;;;10.40;99.90;;;;;;5094603;28;20054;-61
2023/01/07 09:45:03;;;;;;;5.38;3.72;;;10.40;99.90;;;;;;5112661;28;20052;-60
2023/01/07 09:47:33;;;;;;;8.25;4.43;;;10.40;99.90;;;;;;5113264;28;20496;-61
2023/01/07 09:50:23;;;;;;;6.55;3.67;;;10.50;99.90;;;;;;5112811;28;20031;-61
2023/01/07 09:52:59;;;;;;;6.55;3.95;;;10.40;99.90;;;;;;5094695;28;20074;-61
2023/01/07 09:55:35;;;;;;;7.28;4.15;;;10.40;99.90;;;;;;5112956;28;20043;-61
2023/01/07 09:58:01;;;;;;;5.00;3.70;;;10.40;99.90;;;;;;5112791;28;20089;-61
2023/01/07 10:00:28;;;;;;;5.70;4.00;;;10.50;99.90;;;;;;5112812;28;20448;-60
2023/01/07 10:03:27;;;;;;;6.18;3.38;;;10.50;99.90;;;;;;5112726;28;20114;-60
2023/01/07 10:06:14;;;;;;;4.63;3.67;;;10.50;99.90;;;;;;5009770;28;20058;-60
2023/01/07 10:09:00;;;;;;;4.50;3.28;;;10.50;99.90;;;;;;5010030;28;20050;-61
2023/01/07 10:11:59;;;;;;;5.35;3.22;;;10.50;99.90;;;;;;5010129;28;20132;-60
2023/01/07 10:14:48;;;;;;;5.32;3.33;;;10.50;99.90;;;;;;5010230;28;20365;-59
2023/01/07 10:17:38;;;;;;;6.22;3.30;;;10.50;99.90;;;;;;5010484;28;20057;-61
2023/01/07 10:20:30;;;;;;;6.43;3.05;;;10.50;99.90;;;;;;5009979;28;20100;-60
2023/01/07 10:23:29;;;;;;;3.42;2.78;;;10.50;99.90;;;;;;5009916;28;20132;-61
2023/01/07 10:25:56;;;;;;;4.97;2.80;;;10.60;99.90;;;;;;4935534;29;20059;-60
2023/01/07 10:28:36;;;;;;;7.03;3.30;;;10.70;99.90;;;;;;4951388;29;20051;-60
2023/01/07 10:31:05;;;;;;;4.93;3.08;;;10.70;99.90;;;;;;4951554;29;20510;-60
2023/01/07 10:33:31;;;;;;;;;;;10.70;99.90;;;;;;4935313;29;20039;-60
2023/01/07 10:36:04;;;;;;;6.07;3.70;;;10.70;99.90;;;;;;4950182;28;19928;-60
2023/01/07 10:38:35;;;;;;;4.97;2.97;;;10.70;99.90;;;;;;4950751;29;20054;-60
2023/01/07 10:41:12;;;;;;;3.90;2.88;;;10.70;99.90;;;;;;4951571;29;20514;-60
2023/01/07 10:44:37;;;;;;;3.22;2.80;;;10.70;99.90;;;;;;5011146;28;20115;-60
2023/01/07 10:47:17;;;;;;;4.10;2.40;;;10.70;99.90;;;;;;4970480;28;20102;-61
2023/01/07 10:50:10;;;;;;;2.88;2.40;;;10.80;99.90;;;;;;4970785;28;20135;-61
2023/01/07 10:52:42;;;;;;;4.13;2.45;;;10.80;99.90;;;;;;4970914;28;20074;-60
2023/01/07 10:55:33;;;;;;;3.35;2.35;;;10.80;99.90;;;;;;4970609;28;20081;-60
2023/01/07 10:57:59;;;;;;;3.80;2.40;;;10.80;99.90;;;;;;4974495;28;20051;-60
2023/01/07 11:00:25;;;;;;;4.28;2.40;;;10.80;99.90;;;;;;4974555;28;20101;-60
2023/01/07 11:02:56;;;;;;;5.50;2.50;;;10.90;99.90;;;;;;5000496;28;20046;-60
2023/01/07 11:05:27;;;;;;;4.35;2.20;;;10.90;99.90;;;;;;4993438;28;20042;-60
2023/01/07 11:07:56;;;;;;;3.42;2.15;;;10.90;99.90;;;;;;4993577;28;20038;-60
2023/01/07 11:10:24;;;;;;;;;;;11.00;99.90;;;;;;4993973;28;20170;-61
2023/01/07 11:13:00;;;;;;;3.85;2.08;;;10.90;99.90;;;;;;4977605;28;19926;-60
2023/01/07 11:15:38;;;;;;;3.47;2.15;;;10.90;99.90;;;;;;4993526;28;20038;-60
2023/01/07 11:18:13;;;;;;;2.83;2.60;;;11.00;99.90;;;;;;4993650;28;20061;-60
2023/01/07 11:20:44;;;;;;;3.60;2.25;;;11.00;99.90;;;;;;4993352;28;20039;-60
2023/01/07 11:23:30;;;;;;;5.45;2.10;;;11.10;99.90;;;;;;5013996;28;20510;-61
2023/01/07 11:26:16;;;;;;;2.05;1.70;;;11.10;99.90;;;;;;5095106;28;20379;-60
2023/01/07 11:28:54;;;;;;;2.83;2.00;;;11.20;99.90;;;;;;5094889;28;20044;-60
2023/01/07 11:31:22;;;;;;;2.03;1.77;;;11.20;99.90;;;;;;5095143;28;20040;-60
2023/01/07 11:33:52;;;;;;;3.10;1.98;;;11.20;99.90;;;;;;5094555;28;20097;-60
2023/01/07 11:36:19;;;;;;;3.65;2.10;;;11.20;99.90;;;;;;5095139;28;20040;-60
2023/01/07 11:38:45;;;;;;;3.13;1.90;;;11.30;99.90;;;;;;5094873;28;20048;-60
2023/01/07 11:41:25;;;;;;;2.55;2.00;;;11.30;99.90;;;;;;5094641;28;20081;-60
2023/01/07 11:43:53;;;;;;;3.33;2.13;;;11.30;99.90;;;;;;5094812;28;20097;-61
2023/01/07 11:46:20;;;;;;;3.63;1.60;;;11.40;99.90;;;;;;5094833;28;20064;-60
2023/01/07 11:48:59;;;;;;;3.53;1.95;;;11.40;99.90;;;;;;5094704;28;20390;-61
2023/01/07 11:51:26;;;;;;;2.60;1.83;;;11.40;99.90;;;;;;5094597;28;20036;-60
2023/01/07 11:53:55;;;;;;;2.33;1.48;;;11.50;99.90;;;;;;5075905;28;20047;-61
2023/01/07 11:56:28;;;;;;;4.25;1.98;;;11.50;99.90;;;;;;5094588;28;20115;-61
2023/01/07 11:59:13;;;;;;;4.03;1.88;;;11.40;99.90;;;;;;5094711;28;20036;-61
2023/01/07 12:01:53;;;;;;;3.83;1.73;;;11.50;99.90;;;;;;5076306;28;20043;-61
2023/01/07 12:04:35;;;;;;;2.63;1.77;;;11.50;99.90;;;;;;5094662;28;20115;-60
2023/01/07 12:07:11;;;;;;;5.07;1.63;;;11.40;99.90;;;;;;5093566;28;20036;-60
2023/01/07 12:09:39;;;;;;;2.30;1.50;;;11.40;99.90;;;;;;5093908;28;20036;-61
2023/01/07 12:12:33;;;;;;;3.58;1.90;;;11.40;99.90;;;;;;5076270;28;20036;-60
2023/01/07 12:15:19;;;;;;;3.08;1.90;;;11.40;99.90;;;;;;5094357;28;20032;-60
2023/01/07 12:18:17;;;;;;;2.63;2.08;;;11.30;99.90;;;;;;5094363;28;20071;-61
2023/01/07 12:21:16;;;;;;;2.83;1.85;;;11.30;99.90;;;;;;4992446;28;20161;-60
2023/01/07 12:24:08;;;;;;;2.53;1.70;;;11.30;99.90;;;;;;4992258;28;20046;-60
2023/01/07 12:26:53;;;;;;;2.40;1.60;;;11.40;99.90;;;;;;4992381;28;20042;-61
2023/01/07 12:29:34;;;;;;;2.67;1.60;;;11.40;99.90;;;;;;4992321;28;20453;-61
2023/01/07 12:32:25;;;;;;;3.58;1.55;;;11.40;99.90;;;;;;4992195;28;20125;-61
2023/01/07 12:35:01;;;;;;;1.58;1.33;;;11.40;99.90;;;;;;5002889;28;20125;-60
2023/01/07 12:37:34;;;;;;;3.78;1.77;;;11.40;99.90;;;;;;5010562;28;20069;-61
2023/01/07 12:40:19;;;;;;;5.60;2.00;;;11.50;99.90;;;;;;5011744;28;20045;-61
2023/01/07 12:42:58;;;;;;;2.17;1.50;;;11.50;99.90;;;;;;5011753;28;20037;-61
2023/01/07 12:45:29;;;;;;;1.30;1.20;;;11.50;99.90;;;;;;5011477;28;20497;-62
2023/01/07 12:48:02;;;;;;;2.45;1.50;;;11.50;99.90;;;;;;5011487;28;20474;-60
2023/01/07 12:50:37;;;;;;;1.50;1.23;;;11.50;99.90;;;;;;5011421;28;20434;-61
2023/01/07 12:53:08;;;;;;;1.88;1.20;;;11.50;99.90;;;;;;5011559;28;20045;-60
2023/01/07 12:55:38;;;;;;;1.73;1.55;;;11.50;99.90;;;;;;5010972;28;20088;-61
2023/01/07 12:58:09;;;;;;;3.63;1.30;;;11.50;99.90;;;;;;5085975;28;20048;-61
2023/01/07 13:01:02;;;;;;;1.77;1.35;;;11.60;99.90;;;;;;5113666;28;20039;-60